Time;durP1;ratioP1;P1;durP2;ratioP2;P2;SDS_P1;SDS_P2;PMS_P1;PMS_P2;Temp;Humidity;BMP_temperature;BMP_pressure;BME280_temperature;BME280_humidity;BME280_pressure;Samples;Min_cycle;Max_cycle;Signal;HPM_P1;HPM_P2
2020/12/13 00:01:36;;;;;;;0.30;0.30;;;7.60;99.90;;;;;;5047735;28;20226;-68
2020/12/13 00:04:01;;;;;;;0.30;0.30;;;7.60;99.90;;;;;;5036697;28;20207;-69
2020/12/13 00:06:30;;;;;;;0.30;0.30;;;7.60;99.90;;;;;;5037779;28;20183;-68
2020/12/13 00:08:56;;;;;;;0.30;0.20;;;7.50;99.90;;;;;;5042454;28;20195;-69
2020/12/13 00:11:22;;;;;;;0.30;0.30;;;7.60;99.90;;;;;;5055480;28;20188;-68
2020/12/13 00:13:47;;;;;;;0.30;0.30;;;7.50;99.90;;;;;;5056415;28;20559;-68
2020/12/13 00:16:17;;;;;;;0.30;0.30;;;7.50;99.90;;;;;;5053230;28;20655;-68
2020/12/13 00:18:43;;;;;;;0.30;0.30;;;7.50;99.90;;;;;;5036270;28;20301;-67
2020/12/13 00:21:13;;;;;;;0.35;0.35;;;7.60;99.90;;;;;;5037177;28;20600;-69
2020/12/13 00:23:39;;;;;;;0.30;0.30;;;7.60;99.90;;;;;;5056253;28;20182;-69
2020/12/13 00:26:09;;;;;;;0.30;0.30;;;7.60;99.90;;;;;;5054011;28;20185;-68
2020/12/13 00:28:35;;;;;;;0.30;0.30;;;7.50;99.90;;;;;;5036318;28;20173;-66
2020/12/13 00:31:02;;;;;;;1.98;1.02;;;7.60;99.90;;;;;;5035864;28;20249;-67
2020/12/13 00:33:28;;;;;;;0.30;0.30;;;7.60;99.90;;;;;;5056059;28;20176;-67
2020/12/13 00:35:53;;;;;;;0.30;0.30;;;7.60;99.90;;;;;;5055711;28;20690;-68
2020/12/13 00:38:20;;;;;;;0.67;0.67;;;7.70;99.90;;;;;;5037253;28;20178;-67
2020/12/13 00:40:49;;;;;;;0.65;0.65;;;7.60;99.90;;;;;;5054401;28;20216;-67
2020/12/13 00:43:15;;;;;;;0.50;0.50;;;7.60;99.90;;;;;;5036875;28;20204;-65
2020/12/13 00:45:41;;;;;;;0.97;0.77;;;7.60;99.90;;;;;;5035886;28;20257;-66
2020/12/13 00:48:09;;;;;;;0.30;0.30;;;7.60;99.90;;;;;;5036424;28;20438;-68
2020/12/13 00:50:38;;;;;;;0.30;0.30;;;7.60;99.90;;;;;;5035311;28;20169;-67
2020/12/13 00:53:05;;;;;;;0.30;0.30;;;7.60;99.90;;;;;;5051090;28;20353;-67
2020/12/13 00:55:30;;;;;;;0.45;0.45;;;7.60;99.90;;;;;;5055584;28;20189;-68
2020/12/13 00:57:56;;;;;;;0.30;0.20;;;7.70;99.90;;;;;;5041232;28;20186;-68
2020/12/13 01:00:21;;;;;;;0.40;0.40;;;7.70;99.90;;;;;;5035338;28;20174;-67
2020/12/13 01:02:47;;;;;;;0.30;0.27;;;7.60;99.90;;;;;;5041408;28;20210;-68
2020/12/13 01:05:14;;;;;;;0.30;0.30;;;7.60;99.90;;;;;;5040066;28;20180;-68
2020/12/13 01:07:39;;;;;;;0.30;0.30;;;7.70;99.90;;;;;;5055366;28;20423;-69
2020/12/13 01:10:05;;;;;;;0.30;0.30;;;7.70;99.90;;;;;;5050637;28;20190;-67
2020/12/13 01:12:31;;;;;;;0.30;0.30;;;7.80;99.90;;;;;;5041847;28;20519;-67
2020/12/13 01:14:57;;;;;;;0.30;0.30;;;7.70;99.90;;;;;;5053953;28;20197;-66
2020/12/13 01:17:23;;;;;;;0.60;0.60;;;7.70;99.90;;;;;;5035123;28;20180;-68
2020/12/13 01:19:48;;;;;;;0.30;0.27;;;7.70;99.90;;;;;;5035021;28;20177;-66
2020/12/13 01:22:15;;;;;;;0.30;0.30;;;7.70;99.90;;;;;;5054071;28;20202;-68
2020/12/13 01:24:41;;;;;;;0.30;0.30;;;7.70;99.90;;;;;;5055106;28;20174;-67
2020/12/13 01:27:06;;;;;;;0.60;0.60;;;7.70;99.90;;;;;;5037046;28;20170;-68
2020/12/13 01:29:32;;;;;;;0.30;0.30;;;7.70;99.90;;;;;;5035191;28;20406;-68
2020/12/13 01:31:58;;;;;;;0.40;0.40;;;7.80;99.90;;;;;;5034592;28;20663;-68
2020/12/13 01:34:23;;;;;;;0.30;0.30;;;7.80;99.90;;;;;;5034875;28;20284;-68
2020/12/13 01:36:49;;;;;;;0.40;0.40;;;7.80;99.90;;;;;;5049486;28;20254;-67
2020/12/13 01:39:14;;;;;;;0.30;0.27;;;7.70;99.90;;;;;;5054732;28;20240;-68
2020/12/13 01:41:40;;;;;;;0.30;0.30;;;7.70;99.90;;;;;;5040873;28;20198;-67
2020/12/13 01:44:06;;;;;;;0.30;0.30;;;7.60;99.90;;;;;;5034849;28;20640;-67
2020/12/13 01:46:33;;;;;;;0.40;0.40;;;7.70;99.90;;;;;;5045424;28;20231;-67
2020/12/13 01:49:03;;;;;;;0.50;0.50;;;7.60;99.90;;;;;;5054477;28;20630;-68
2020/12/13 01:51:45;;;;;;;0.30;0.30;;;7.60;99.90;;;;;;5042492;28;20216;-67
2020/12/13 01:54:13;;;;;;;0.32;0.32;;;7.60;99.90;;;;;;5034663;28;20201;-68
2020/12/13 01:56:42;;;;;;;0.57;0.57;;;7.60;99.90;;;;;;5044505;28;20180;-68
2020/12/13 01:59:11;;;;;;;0.40;0.40;;;7.60;99.90;;;;;;5054235;28;20241;-68
2020/12/13 02:01:38;;;;;;;0.30;0.30;;;7.60;99.90;;;;;;5046500;28;20664;-67
2020/12/13 02:04:06;;;;;;;0.40;0.40;;;7.60;99.90;;;;;;5054281;28;20169;-67
2020/12/13 02:06:34;;;;;;;0.82;0.82;;;7.60;99.90;;;;;;5044409;28;20174;-67
2020/12/13 02:09:00;;;;;;;0.30;0.30;;;7.60;99.90;;;;;;5034206;28;20173;-66
2020/12/13 02:11:26;;;;;;;0.30;0.30;;;7.60;99.90;;;;;;5034782;28;20194;-66
2020/12/13 02:13:52;;;;;;;0.65;0.65;;;7.60;99.90;;;;;;5034093;28;20664;-67
2020/12/13 02:16:18;;;;;;;0.50;0.50;;;7.60;99.90;;;;;;5050112;28;20190;-67
2020/12/13 02:18:45;;;;;;;0.40;0.40;;;7.60;99.90;;;;;;5054124;28;20181;-67
2020/12/13 02:21:12;;;;;;;0.40;0.40;;;7.60;99.90;;;;;;5051107;28;20227;-68
2020/12/13 02:23:39;;;;;;;1.05;1.00;;;7.60;99.90;;;;;;5053718;28;20196;-67
2020/12/13 02:26:09;;;;;;;0.30;0.30;;;7.60;99.90;;;;;;5041721;28;20168;-67
2020/12/13 02:28:38;;;;;;;0.50;0.50;;;7.60;99.90;;;;;;5033851;28;20183;-67
2020/12/13 02:31:05;;;;;;;0.30;0.30;;;7.60;99.90;;;;;;5044058;28;20245;-67
2020/12/13 02:33:31;;;;;;;0.68;0.68;;;7.60;99.90;;;;;;5053840;28;20161;-67
2020/12/13 02:35:57;;;;;;;0.30;0.30;;;7.60;99.90;;;;;;5049084;28;20246;-67
2020/12/13 02:38:23;;;;;;;0.30;0.30;;;7.60;99.90;;;;;;5053750;28;20179;-66
2020/12/13 02:40:49;;;;;;;0.30;0.20;;;7.70;99.90;;;;;;5045490;28;20174;-68
2020/12/13 02:43:15;;;;;;;0.40;0.40;;;7.70;99.90;;;;;;5033650;28;20428;-67
2020/12/13 02:45:40;;;;;;;0.30;0.30;;;7.70;99.90;;;;;;5035074;28;20174;-68
2020/12/13 02:48:06;;;;;;;0.30;0.30;;;7.70;99.90;;;;;;5053611;28;20564;-67
2020/12/13 02:50:32;;;;;;;0.47;0.47;;;7.60;99.90;;;;;;5044511;28;20180;-68
2020/12/13 02:53:00;;;;;;;0.30;0.20;;;7.70;99.90;;;;;;5053194;28;20716;-68
2020/12/13 02:55:26;;;;;;;0.30;0.30;;;7.70;99.90;;;;;;5050897;28;20212;-68
2020/12/13 02:57:52;;;;;;;0.50;0.50;;;7.60;99.90;;;;;;5033510;28;20532;-68
2020/12/13 03:00:18;;;;;;;0.93;0.83;;;7.60;99.90;;;;;;5050837;28;20172;-68
2020/12/13 03:02:43;;;;;;;0.40;0.40;;;7.60;99.90;;;;;;5033449;28;20416;-67
2020/12/13 03:05:09;;;;;;;0.30;0.30;;;7.60;99.90;;;;;;5032863;28;20511;-68
2020/12/13 03:07:34;;;;;;;0.30;0.30;;;7.60;99.90;;;;;;5034252;28;20731;-68
2020/12/13 03:10:00;;;;;;;0.30;0.30;;;7.70;99.90;;;;;;5032939;28;20249;-66
2020/12/13 03:12:26;;;;;;;0.43;0.43;;;7.60;99.90;;;;;;5049624;28;20667;-67
2020/12/13 03:14:55;;;;;;;0.30;0.30;;;7.70;99.90;;;;;;5053255;28;20606;-68
2020/12/13 03:17:21;;;;;;;0.30;0.30;;;7.70;99.90;;;;;;5037970;28;20176;-66
2020/12/13 03:19:47;;;;;;;0.30;0.30;;;7.70;99.90;;;;;;5033148;28;20224;-66
2020/12/13 03:22:13;;;;;;;0.38;0.38;;;7.70;99.90;;;;;;5038109;28;20201;-68
2020/12/13 03:24:38;;;;;;;1.13;1.13;;;7.70;99.90;;;;;;5033387;28;20177;-67
2020/12/13 03:27:04;;;;;;;0.33;0.33;;;7.70;99.90;;;;;;5046410;28;20229;-67
2020/12/13 03:29:29;;;;;;;0.30;0.30;;;7.70;99.90;;;;;;5053280;28;20662;-67
2020/12/13 03:31:55;;;;;;;0.30;0.30;;;7.70;99.90;;;;;;5041056;28;20202;-67
2020/12/13 03:34:21;;;;;;;0.30;0.30;;;7.70;99.90;;;;;;5033273;28;20201;-68
2020/12/13 03:36:47;;;;;;;1.83;0.63;;;7.70;99.90;;;;;;5043220;28;20257;-67
2020/12/13 03:39:13;;;;;;;0.30;0.30;;;7.70;99.90;;;;;;5053172;28;20177;-68
2020/12/13 03:41:38;;;;;;;0.40;0.40;;;7.70;99.90;;;;;;5043622;28;20193;-67
2020/12/13 03:44:04;;;;;;;0.40;0.40;;;7.80;99.90;;;;;;5033166;28;20178;-67
2020/12/13 03:46:30;;;;;;;0.40;0.40;;;7.80;99.90;;;;;;5039594;28;20260;-66
2020/12/13 03:48:55;;;;;;;0.67;0.67;;;7.80;99.90;;;;;;5053065;28;20229;-68
2020/12/13 03:51:21;;;;;;;0.30;0.30;;;7.80;99.90;;;;;;5041646;28;20204;-67
2020/12/13 03:53:47;;;;;;;0.50;0.50;;;7.80;99.90;;;;;;5052825;28;20226;-67
2020/12/13 03:56:12;;;;;;;0.30;0.30;;;7.70;99.90;;;;;;5048334;28;20180;-68
2020/12/13 03:58:38;;;;;;;0.70;0.70;;;7.70;99.90;;;;;;5033004;28;20203;-67
2020/12/13 04:01:04;;;;;;;0.30;0.30;;;7.70;99.90;;;;;;5035758;28;20245;-67
2020/12/13 04:03:30;;;;;;;0.35;0.35;;;7.70;99.90;;;;;;5052981;28;20203;-67
2020/12/13 04:05:55;;;;;;;0.30;0.20;;;7.70;99.90;;;;;;5050386;28;20201;-69
2020/12/13 04:08:21;;;;;;;0.50;0.50;;;7.60;99.90;;;;;;5033370;28;20184;-67
2020/12/13 04:10:47;;;;;;;0.30;0.30;;;7.70;99.90;;;;;;5033214;28;20517;-68
2020/12/13 04:13:12;;;;;;;0.50;0.50;;;7.70;99.90;;;;;;5050656;28;20246;-68
2020/12/13 04:15:38;;;;;;;1.10;1.00;;;7.60;99.90;;;;;;5046974;28;20196;-68
2020/12/13 04:18:04;;;;;;;0.30;0.30;;;7.70;99.90;;;;;;5056454;28;20172;-67
2020/12/13 04:20:30;;;;;;;1.03;1.03;;;7.60;99.90;;;;;;5044889;28;20641;-67
2020/12/13 04:22:55;;;;;;;0.30;0.30;;;7.60;99.90;;;;;;5036200;28;20250;-66
2020/12/13 04:25:21;;;;;;;0.30;0.30;;;7.70;99.90;;;;;;5043647;28;20470;-66
2020/12/13 04:27:47;;;;;;;0.50;0.50;;;7.60;99.90;;;;;;5055795;28;20243;-66
2020/12/13 04:30:13;;;;;;;0.30;0.30;;;7.60;99.90;;;;;;5047298;28;20565;-65
2020/12/13 04:32:39;;;;;;;1.80;0.60;;;7.60;99.90;;;;;;5036143;28;20219;-67
2020/12/13 04:35:05;;;;;;;0.30;0.20;;;7.60;99.90;;;;;;5042128;28;20540;-67
2020/12/13 04:37:31;;;;;;;0.30;0.20;;;7.60;99.90;;;;;;5055907;28;20171;-67
2020/12/13 04:39:57;;;;;;;0.30;0.30;;;7.70;99.90;;;;;;5050674;28;20647;-67
2020/12/13 04:42:24;;;;;;;0.30;0.30;;;7.70;99.90;;;;;;5035864;28;20257;-67
2020/12/13 04:44:50;;;;;;;0.30;0.30;;;7.70;99.90;;;;;;5050855;28;20430;-66
2020/12/13 04:47:18;;;;;;;0.30;0.30;;;7.70;99.90;;;;;;5035705;28;20173;-68
2020/12/13 04:49:47;;;;;;;0.30;0.30;;;7.70;99.90;;;;;;5037521;28;20264;-68
2020/12/13 04:52:13;;;;;;;0.30;0.30;;;7.80;99.90;;;;;;5055806;28;20254;-66
2020/12/13 04:54:47;;;;;;;0.37;0.37;;;7.80;99.90;;;;;;5054051;28;20287;-67
2020/12/13 04:57:13;;;;;;;0.30;0.30;;;7.80;99.90;;;;;;5035672;28;20403;-66
2020/12/13 04:59:39;;;;;;;0.30;0.30;;;7.80;99.90;;;;;;5053296;28;20169;-67
2020/12/13 05:02:05;;;;;;;0.30;0.30;;;7.80;99.90;;;;;;5055248;28;20420;-67
2020/12/13 05:04:32;;;;;;;0.30;0.30;;;7.90;99.90;;;;;;5053525;28;20168;-67
2020/12/13 05:06:58;;;;;;;0.30;0.28;;;7.80;99.90;;;;;;5055334;28;20640;-66
2020/12/13 05:09:24;;;;;;;0.30;0.30;;;7.90;99.90;;;;;;5054664;28;20187;-67
2020/12/13 05:11:50;;;;;;;0.30;0.30;;;7.80;99.90;;;;;;5034956;28;20720;-67
2020/12/13 05:14:16;;;;;;;0.30;0.30;;;7.80;99.90;;;;;;5053853;28;20200;-67
2020/12/13 05:16:41;;;;;;;0.30;0.20;;;7.80;99.90;;;;;;5036360;28;20707;-65
2020/12/13 05:19:08;;;;;;;0.87;0.60;;;7.80;99.90;;;;;;5035160;28;20199;-67
2020/12/13 05:21:35;;;;;;;1.75;1.35;;;7.80;99.90;;;;;;5035726;28;20671;-65
2020/12/13 05:24:05;;;;;;;0.38;0.38;;;7.80;99.90;;;;;;5035240;28;20170;-67
2020/12/13 05:26:32;;;;;;;0.30;0.30;;;7.80;99.90;;;;;;5051381;28;20249;-66
2020/12/13 05:29:02;;;;;;;0.40;0.40;;;7.80;99.90;;;;;;5055118;28;20172;-67
2020/12/13 05:31:30;;;;;;;0.40;0.40;;;7.80;99.90;;;;;;5037325;28;20560;-68
2020/12/13 05:34:05;;;;;;;0.30;0.30;;;7.80;99.90;;;;;;5035104;28;20177;-69
2020/12/13 05:36:35;;;;;;;0.30;0.30;;;7.80;99.90;;;;;;5038973;28;20165;-68
2020/12/13 05:39:02;;;;;;;0.30;0.30;;;7.80;99.90;;;;;;5035077;28;20177;-68
2020/12/13 05:41:30;;;;;;;0.30;0.30;;;7.80;99.90;;;;;;5050709;28;20204;-67
2020/12/13 05:44:21;;;;;;;0.57;0.57;;;7.80;99.90;;;;;;5054741;28;20165;-67
2020/12/13 05:52:26;;;;;;;0.30;0.30;;;7.80;99.90;;;;;;5054285;28;20570;-67
2020/12/13 05:54:54;;;;;;;0.45;0.45;;;7.90;99.90;;;;;;5052891;28;20201;-68
2020/12/13 05:57:21;;;;;;;0.30;0.20;;;7.90;99.90;;;;;;5034462;28;20217;-68
2020/12/13 05:59:47;;;;;;;0.30;0.30;;;7.80;99.90;;;;;;5034097;28;20501;-67
2020/12/13 06:02:13;;;;;;;0.30;0.30;;;7.80;99.90;;;;;;5054142;28;20199;-68
2020/12/13 06:04:44;;;;;;;0.30;0.30;;;7.90;99.90;;;;;;5053144;28;20217;-67
2020/12/13 06:07:11;;;;;;;0.30;0.30;;;7.90;99.90;;;;;;5054160;28;20418;-68
2020/12/13 06:09:39;;;;;;;0.73;0.73;;;7.90;99.90;;;;;;5053895;28;20176;-67
2020/12/13 06:12:10;;;;;;;0.30;0.20;;;7.90;99.90;;;;;;5035230;28;20198;-66
2020/12/13 06:14:41;;;;;;;0.40;0.40;;;7.90;99.90;;;;;;5043680;28;20602;-66
2020/12/13 06:17:07;;;;;;;0.30;0.30;;;7.90;99.90;;;;;;5054290;28;20548;-67
2020/12/13 06:19:36;;;;;;;0.30;0.25;;;7.90;99.90;;;;;;5043707;28;20174;-67
2020/12/13 06:22:03;;;;;;;0.30;0.30;;;7.90;99.90;;;;;;5033860;28;20193;-66
2020/12/13 06:24:29;;;;;;;0.30;0.30;;;7.90;99.90;;;;;;5033695;28;20206;-67
2020/12/13 06:26:56;;;;;;;0.30;0.30;;;7.80;99.90;;;;;;5033444;28;20519;-67
2020/12/13 06:29:23;;;;;;;0.38;0.38;;;7.80;99.90;;;;;;5040550;28;20165;-66
2020/12/13 06:31:51;;;;;;;0.30;0.30;;;7.80;99.90;;;;;;5046067;28;20231;-67
2020/12/13 06:34:17;;;;;;;0.30;0.30;;;7.90;99.90;;;;;;5033685;28;20194;-67
2020/12/13 06:36:44;;;;;;;0.30;0.20;;;7.90;99.90;;;;;;5033772;28;20558;-66
2020/12/13 06:39:15;;;;;;;0.30;0.20;;;7.90;99.90;;;;;;5034635;28;20881;-68
2020/12/13 06:41:49;;;;;;;0.30;0.30;;;7.90;99.90;;;;;;5033383;28;20200;-68
2020/12/13 06:44:16;;;;;;;0.30;0.30;;;7.90;99.90;;;;;;5039637;28;20227;-68
2020/12/13 06:46:47;;;;;;;0.30;0.30;;;7.90;99.90;;;;;;5053667;28;20215;-68
2020/12/13 06:49:15;;;;;;;0.30;0.30;;;7.90;99.90;;;;;;5047725;28;20648;-68
2020/12/13 06:51:42;;;;;;;0.30;0.30;;;7.90;99.90;;;;;;5033194;28;20193;-69
2020/12/13 06:54:19;;;;;;;0.30;0.20;;;7.90;99.90;;;;;;5036961;28;20279;-67
2020/12/13 06:56:46;;;;;;;0.40;0.40;;;7.90;99.90;;;;;;5033299;28;20576;-68
2020/12/13 06:59:12;;;;;;;0.30;0.20;;;8.00;99.90;;;;;;5038283;28;20176;-67
2020/12/13 07:01:41;;;;;;;0.30;0.30;;;7.90;99.90;;;;;;5052841;28;20732;-67
2020/12/13 07:04:21;;;;;;;0.30;0.20;;;8.00;99.90;;;;;;5047305;28;20188;-67
2020/12/13 07:09:30;;;;;;;0.30;0.30;;;8.00;99.90;;;;;;5047080;28;20179;-66
2020/12/13 07:11:56;;;;;;;0.30;0.30;;;7.90;99.90;;;;;;5032751;28;20192;-67
2020/12/13 07:14:25;;;;;;;0.30;0.28;;;8.00;99.90;;;;;;5034292;28;20277;-66
2020/12/13 07:17:02;;;;;;;0.30;0.30;;;8.00;99.90;;;;;;5033153;28;20172;-66
2020/12/13 07:19:33;;;;;;;0.30;0.30;;;8.00;99.90;;;;;;5033738;28;20177;-68
2020/12/13 07:22:11;;;;;;;0.30;0.30;;;7.90;99.90;;;;;;5032763;28;20188;-69
2020/12/13 07:24:38;;;;;;;0.30;0.28;;;7.90;99.90;;;;;;5034370;28;20178;-66
2020/12/13 07:27:05;;;;;;;0.30;0.30;;;7.90;99.90;;;;;;5033161;28;20174;-69
2020/12/13 07:29:32;;;;;;;0.30;0.30;;;7.90;99.90;;;;;;5038994;28;20176;-68
2020/12/13 07:31:58;;;;;;;0.30;0.30;;;8.00;99.90;;;;;;5048853;28;20550;-69
2020/12/13 07:34:24;;;;;;;0.30;0.30;;;8.00;99.90;;;;;;5034024;28;20201;-67
2020/12/13 07:36:50;;;;;;;0.30;0.20;;;7.90;99.90;;;;;;5052300;28;20204;-67
2020/12/13 07:39:16;;;;;;;0.30;0.30;;;8.00;99.90;;;;;;5034143;28;20200;-68
2020/12/13 07:41:43;;;;;;;0.30;0.30;;;7.90;99.90;;;;;;5032543;28;20688;-68
2020/12/13 07:44:13;;;;;;;0.40;0.40;;;8.00;99.90;;;;;;5033364;28;20422;-66
2020/12/13 07:46:41;;;;;;;0.30;0.30;;;8.00;99.90;;;;;;5049652;28;20177;-67
2020/12/13 07:49:17;;;;;;;0.30;0.30;;;8.00;99.90;;;;;;5041396;28;20187;-68
2020/12/13 07:51:53;;;;;;;0.30;0.30;;;8.00;99.90;;;;;;5016470;28;20221;-68
2020/12/13 07:54:24;;;;;;;0.43;0.43;;;8.00;99.90;;;;;;5020494;28;20201;-67
2020/12/13 07:56:52;;;;;;;0.30;0.20;;;7.90;99.90;;;;;;5056820;28;20168;-67
2020/12/13 07:59:22;;;;;;;0.30;0.30;;;8.00;99.90;;;;;;5055286;28;20225;-68
2020/12/13 08:01:50;;;;;;;0.30;0.30;;;8.00;99.90;;;;;;5036256;28;20269;-67
2020/12/13 08:04:35;;;;;;;0.30;0.30;;;8.00;99.90;;;;;;5037386;28;20181;-69
2020/12/13 08:07:05;;;;;;;0.30;0.30;;;8.00;99.90;;;;;;5056591;28;20581;-68
2020/12/13 08:09:31;;;;;;;0.30;0.20;;;8.00;99.90;;;;;;5053732;28;20180;-65
2020/12/13 08:11:57;;;;;;;0.50;0.50;;;8.00;99.90;;;;;;5044055;28;20204;-66
2020/12/13 08:14:24;;;;;;;0.30;0.30;;;8.00;99.90;;;;;;5049602;28;20208;-70
2020/12/13 08:16:53;;;;;;;0.30;0.30;;;8.00;99.90;;;;;;5044840;28;20509;-66
2020/12/13 08:19:28;;;;;;;0.30;0.30;;;8.00;99.90;;;;;;5048889;28;20744;-68
2020/12/13 08:22:01;;;;;;;0.30;0.30;;;8.00;99.90;;;;;;5055967;28;20191;-67
2020/12/13 08:24:29;;;;;;;0.30;0.30;;;8.00;99.90;;;;;;5043830;28;20260;-69
2020/12/13 08:26:57;;;;;;;0.30;0.30;;;8.00;99.90;;;;;;5036274;28;20166;-66
2020/12/13 08:29:24;;;;;;;0.30;0.30;;;8.10;99.90;;;;;;5041594;28;20671;-68
2020/12/13 08:31:51;;;;;;;0.30;0.30;;;8.10;99.90;;;;;;5044683;28;20525;-72
2020/12/13 08:34:23;;;;;;;0.30;0.20;;;8.20;99.90;;;;;;5038553;28;20192;-69
2020/12/13 08:36:54;;;;;;;0.43;0.43;;;8.10;99.90;;;;;;5056024;28;20162;-69
2020/12/13 08:39:34;;;;;;;0.30;0.30;;;8.10;99.90;;;;;;5050717;28;20170;-72
2020/12/13 08:42:02;;;;;;;0.30;0.30;;;8.10;99.90;;;;;;5035398;28;20189;-69
2020/12/13 08:44:33;;;;;;;0.30;0.30;;;8.10;99.90;;;;;;5042119;28;20187;-72
2020/12/13 08:47:05;;;;;;;0.30;0.28;;;8.10;99.90;;;;;;5035939;28;20244;-69
2020/12/13 08:49:38;;;;;;;0.30;0.30;;;8.20;99.90;;;;;;5039836;28;20172;-68
2020/12/13 08:52:16;;;;;;;0.30;0.30;;;8.20;99.90;;;;;;5029293;28;20209;-70
2020/12/13 08:54:49;;;;;;;0.30;0.30;;;8.20;99.90;;;;;;5047897;28;20192;-69
2020/12/13 08:57:36;;;;;;;0.30;0.30;;;8.20;99.90;;;;;;5053742;28;20176;-66
2020/12/13 09:00:13;;;;;;;0.30;0.30;;;8.30;99.90;;;;;;5043710;28;20180;-67
2020/12/13 09:02:39;;;;;;;0.40;0.40;;;8.40;99.90;;;;;;5054633;28;20185;-70
2020/12/13 09:05:08;;;;;;;0.30;0.30;;;8.40;99.90;;;;;;5045226;28;20663;-67
2020/12/13 09:07:34;;;;;;;0.30;0.20;;;8.50;99.90;;;;;;5035454;28;20499;-68
2020/12/13 09:10:08;;;;;;;0.30;0.30;;;8.40;99.90;;;;;;5044367;28;20186;-68
2020/12/13 09:12:35;;;;;;;0.30;0.30;;;8.50;99.90;;;;;;5055416;28;20199;-66
2020/12/13 09:15:12;;;;;;;0.30;0.30;;;8.50;99.90;;;;;;5045424;28;20206;-66
2020/12/13 09:17:39;;;;;;;0.30;0.30;;;8.60;99.90;;;;;;5033837;28;20620;-68
2020/12/13 09:20:06;;;;;;;0.30;0.30;;;8.60;99.90;;;;;;5043639;28;20182;-69
2020/12/13 09:22:31;;;;;;;0.30;0.30;;;8.70;99.90;;;;;;5054966;28;20189;-70
2020/12/13 09:24:58;;;;;;;2.20;1.23;;;8.70;99.90;;;;;;5046893;28;20258;-71
2020/12/13 09:27:26;;;;;;;0.35;0.35;;;8.80;99.90;;;;;;5035148;28;20401;-68
2020/12/13 09:29:52;;;;;;;0.43;0.40;;;8.80;99.90;;;;;;5039884;28;20173;-66
2020/12/13 09:32:19;;;;;;;0.30;0.30;;;8.90;99.90;;;;;;5047313;28;20224;-67
2020/12/13 09:34:46;;;;;;;0.30;0.20;;;8.90;99.90;;;;;;5048896;28;20276;-65
2020/12/13 09:37:15;;;;;;;0.30;0.30;;;8.90;99.90;;;;;;5034774;28;20166;-68
2020/12/13 09:39:40;;;;;;;0.30;0.30;;;9.00;99.90;;;;;;5034352;28;20174;-65
2020/12/13 09:42:07;;;;;;;1.17;0.50;;;9.00;99.90;;;;;;5034701;28;20226;-70
2020/12/13 09:44:33;;;;;;;4.45;0.70;;;9.10;99.90;;;;;;5035509;28;20205;-67
2020/12/13 09:47:00;;;;;;;0.30;0.30;;;9.10;99.90;;;;;;5034731;28;20166;-66
2020/12/13 09:49:30;;;;;;;0.30;0.20;;;9.10;99.90;;;;;;5038613;28;20528;-67
2020/12/13 09:51:59;;;;;;;0.30;0.20;;;9.10;99.90;;;;;;5053904;28;20216;-69
2020/12/13 09:54:25;;;;;;;0.30;0.30;;;9.20;99.90;;;;;;5052384;28;20547;-68
2020/12/13 09:56:51;;;;;;;0.30;0.20;;;9.20;99.90;;;;;;5054615;28;20170;-68
2020/12/13 09:59:17;;;;;;;0.30;0.30;;;9.20;99.90;;;;;;5052427;28;20188;-67
2020/12/13 10:01:42;;;;;;;0.30;0.30;;;9.20;99.90;;;;;;5034091;28;20672;-67
2020/12/13 10:04:08;;;;;;;0.30;0.30;;;9.20;99.90;;;;;;5053820;28;20408;-68
2020/12/13 10:06:47;;;;;;;0.30;0.30;;;9.30;99.90;;;;;;5034406;28;20220;-69
2020/12/13 10:09:16;;;;;;;0.30;0.20;;;9.30;99.90;;;;;;5034466;28;20404;-70
2020/12/13 10:11:43;;;;;;;0.43;0.43;;;9.20;99.90;;;;;;5014084;28;20618;-69
2020/12/13 10:14:11;;;;;;;0.30;0.30;;;9.20;99.90;;;;;;5034844;28;20680;-68
2020/12/13 10:16:41;;;;;;;0.30;0.30;;;9.30;99.90;;;;;;5053434;28;20526;-66
2020/12/13 10:19:07;;;;;;;0.30;0.30;;;9.30;99.90;;;;;;5036762;28;20185;-66
2020/12/13 10:21:36;;;;;;;0.30;0.20;;;9.30;99.90;;;;;;5032245;28;20601;-67
2020/12/13 10:24:02;;;;;;;0.30;0.30;;;9.30;99.90;;;;;;5030659;28;20174;-66
2020/12/13 10:26:30;;;;;;;0.30;0.30;;;9.40;99.90;;;;;;5030800;28;20253;-67
2020/12/13 10:28:57;;;;;;;0.30;0.30;;;9.40;99.90;;;;;;5030874;28;20678;-66
2020/12/13 10:31:30;;;;;;;0.38;0.38;;;9.40;99.90;;;;;;5030505;28;20194;-68
2020/12/13 10:33:57;;;;;;;0.30;0.30;;;9.50;99.90;;;;;;5031595;28;20242;-69
2020/12/13 10:36:23;;;;;;;0.50;0.50;;;9.50;99.90;;;;;;5030754;28;20166;-68
2020/12/13 10:38:51;;;;;;;0.30;0.30;;;9.50;99.90;;;;;;5031459;28;20312;-67
2020/12/13 10:41:19;;;;;;;0.30;0.30;;;9.50;99.90;;;;;;5031845;28;20656;-66
2020/12/13 10:43:45;;;;;;;0.77;0.77;;;9.50;99.90;;;;;;5032745;28;20178;-68
2020/12/13 10:46:10;;;;;;;0.30;0.30;;;9.50;99.90;;;;;;5031822;28;20234;-66
2020/12/13 10:48:36;;;;;;;0.30;0.30;;;9.50;99.90;;;;;;5032005;28;20174;-67
2020/12/13 10:51:02;;;;;;;0.57;0.50;;;9.50;99.90;;;;;;5031780;28;20181;-67
2020/12/13 10:53:28;;;;;;;0.50;0.50;;;9.50;99.90;;;;;;5034217;28;20213;-65
2020/12/13 10:55:54;;;;;;;0.30;0.30;;;9.60;99.90;;;;;;5034313;28;20456;-65
2020/12/13 10:58:22;;;;;;;0.30;0.20;;;9.60;99.90;;;;;;5032554;28;20455;-66
2020/12/13 11:00:49;;;;;;;0.45;0.40;;;9.60;99.90;;;;;;5032955;28;20166;-67
2020/12/13 11:03:15;;;;;;;0.40;0.40;;;9.60;99.90;;;;;;5033434;28;20192;-67
2020/12/13 11:05:42;;;;;;;1.25;0.77;;;9.70;99.90;;;;;;5053205;28;20169;-66
2020/12/13 11:08:09;;;;;;;0.30;0.30;;;9.70;99.90;;;;;;5053033;28;20204;-68
2020/12/13 11:10:35;;;;;;;0.30;0.20;;;9.70;99.90;;;;;;5051471;28;20203;-68
2020/12/13 11:13:00;;;;;;;0.30;0.30;;;9.80;99.90;;;;;;5052607;28;20198;-67
2020/12/13 11:15:26;;;;;;;0.33;0.33;;;9.90;99.90;;;;;;5051309;28;20197;-67
2020/12/13 11:17:52;;;;;;;2.60;0.90;;;9.90;99.90;;;;;;5053131;28;20165;-67
2020/12/13 11:20:17;;;;;;;0.30;0.30;;;9.90;99.90;;;;;;5035476;28;20173;-70
2020/12/13 11:22:43;;;;;;;0.50;0.50;;;9.90;99.90;;;;;;5033379;28;20676;-65
2020/12/13 11:25:09;;;;;;;0.30;0.20;;;10.10;99.90;;;;;;5049355;28;20268;-66
2020/12/13 11:27:35;;;;;;;1.00;0.90;;;10.20;99.90;;;;;;5057296;28;20416;-66
2020/12/13 11:30:05;;;;;;;0.30;0.20;;;10.40;99.90;;;;;;5053711;28;20790;-68
2020/12/13 11:32:31;;;;;;;0.30;0.30;;;10.60;99.90;;;;;;5053440;28;20768;-65
2020/12/13 11:34:56;;;;;;;0.30;0.30;;;10.80;99.90;;;;;;5033849;28;20202;-67
2020/12/13 11:37:22;;;;;;;0.30;0.20;;;11.00;99.90;;;;;;5037343;28;20174;-66
2020/12/13 11:39:48;;;;;;;0.30;0.20;;;11.30;99.90;;;;;;5050500;28;20178;-65
2020/12/13 11:42:16;;;;;;;0.60;0.60;;;11.40;99.90;;;;;;5055768;28;20224;-65
2020/12/13 11:44:41;;;;;;;0.30;0.30;;;11.40;99.90;;;;;;5055203;28;20433;-65
2020/12/13 11:47:08;;;;;;;0.30;0.20;;;11.30;99.90;;;;;;5056744;28;20571;-66
2020/12/13 11:49:33;;;;;;;0.30;0.20;;;11.20;99.90;;;;;;5056365;28;20196;-69
2020/12/13 11:51:59;;;;;;;1.10;0.43;;;11.10;99.90;;;;;;5056072;28;20186;-68
2020/12/13 11:54:24;;;;;;;0.30;0.20;;;10.90;99.90;;;;;;5042508;28;20710;-68
2020/12/13 11:56:50;;;;;;;0.30;0.20;;;10.80;99.90;;;;;;5037020;28;20222;-68
2020/12/13 11:59:16;;;;;;;0.30;0.30;;;10.70;99.90;;;;;;5051884;28;20227;-67
2020/12/13 12:01:44;;;;;;;0.30;0.30;;;10.60;99.90;;;;;;5055992;28;20204;-69
2020/12/13 12:04:10;;;;;;;0.30;0.30;;;10.50;99.90;;;;;;5041055;28;20170;-65
2020/12/13 12:06:36;;;;;;;0.30;0.28;;;10.50;99.90;;;;;;5036582;28;20175;-65
2020/12/13 12:09:03;;;;;;;0.30;0.30;;;10.40;99.90;;;;;;5048469;28;20252;-65
2020/12/13 12:11:29;;;;;;;0.30;0.20;;;10.30;99.90;;;;;;5055795;28;20428;-68
2020/12/13 12:13:55;;;;;;;0.40;0.40;;;10.30;99.90;;;;;;5037242;28;20601;-69
2020/12/13 12:16:28;;;;;;;0.30;0.30;;;10.30;99.90;;;;;;5036408;28;20174;-70
2020/12/13 12:18:55;;;;;;;0.30;0.30;;;10.20;99.90;;;;;;5053774;28;20598;-70
2020/12/13 12:21:23;;;;;;;0.30;0.30;;;10.10;99.90;;;;;;5055570;28;20600;-70
2020/12/13 12:23:49;;;;;;;0.30;0.30;;;10.20;99.90;;;;;;5044596;28;20170;-68
2020/12/13 12:26:16;;;;;;;0.40;0.40;;;10.10;99.90;;;;;;5036223;28;20528;-68
2020/12/13 12:28:41;;;;;;;0.30;0.25;;;10.00;99.90;;;;;;5051438;28;20713;-67
2020/12/13 12:31:07;;;;;;;0.30;0.30;;;9.90;99.90;;;;;;5055483;28;20185;-67
2020/12/13 12:33:33;;;;;;;0.30;0.30;;;9.80;99.90;;;;;;5040504;28;20261;-67
2020/12/13 12:35:58;;;;;;;0.30;0.30;;;9.70;99.90;;;;;;5035324;28;20217;-67
2020/12/13 12:38:24;;;;;;;0.30;0.20;;;9.70;99.90;;;;;;5048101;28;20174;-68
2020/12/13 12:40:50;;;;;;;0.47;0.47;;;9.60;99.90;;;;;;5055423;28;20524;-70
2020/12/13 12:43:15;;;;;;;0.30;0.30;;;9.60;99.90;;;;;;5049413;28;20193;-69
2020/12/13 12:45:41;;;;;;;0.40;0.40;;;9.60;99.90;;;;;;5041689;28;20213;-67
2020/12/13 12:48:06;;;;;;;0.40;0.40;;;9.50;99.90;;;;;;5036928;28;20594;-66
2020/12/13 12:50:36;;;;;;;0.30;0.30;;;9.60;99.90;;;;;;5035237;28;20360;-65
2020/12/13 12:53:02;;;;;;;0.30;0.30;;;9.50;99.90;;;;;;5048060;28;20216;-66
2020/12/13 12:55:30;;;;;;;0.30;0.30;;;9.50;99.90;;;;;;5055584;28;20300;-65
2020/12/13 12:57:57;;;;;;;0.40;0.40;;;9.50;99.90;;;;;;5053453;28;20165;-66
2020/12/13 13:03:01;;;;;;;0.30;0.30;;;9.40;99.90;;;;;;5055240;28;20189;-68
2020/12/13 13:05:37;;;;;;;0.30;0.30;;;9.40;99.90;;;;;;5055530;28;20169;-68
2020/12/13 13:08:11;;;;;;;0.70;0.68;;;9.30;99.90;;;;;;5055111;28;20606;-67